createdAt,value
2022-12-12T00:01:28.117Z,-4.00
2022-12-12T00:03:56.178Z,-3.70
2022-12-12T00:06:24.458Z,-3.80
2022-12-12T00:08:52.374Z,-3.50
2022-12-12T00:11:20.840Z,-3.80
2022-12-12T00:13:48.462Z,-3.60
2022-12-12T00:16:17.235Z,-3.90
2022-12-12T00:18:44.933Z,-3.80
2022-12-12T00:21:21.932Z,-4.20
2022-12-12T00:23:49.776Z,-3.80
2022-12-12T00:26:20.663Z,-3.90
2022-12-12T00:28:49.091Z,-2.50
2022-12-12T00:31:17.106Z,-3.90
2022-12-12T00:33:46.843Z,-3.90
2022-12-12T00:36:14.456Z,-4.00
2022-12-12T00:38:41.921Z,-3.60
2022-12-12T00:41:09.947Z,-3.90
2022-12-12T00:43:37.758Z,-4.00
2022-12-12T00:46:05.524Z,-4.90
2022-12-12T00:48:33.492Z,-3.80
2022-12-12T00:51:08.932Z,-2.40
2022-12-12T00:53:37.721Z,-3.80
2022-12-12T00:56:06.298Z,-4.20
2022-12-12T00:58:34.018Z,-3.90
2022-12-12T01:01:06.496Z,-4.00
2022-12-12T01:03:35.334Z,-3.10
2022-12-12T01:06:03.195Z,-3.90
2022-12-12T01:08:30.607Z,-3.60
2022-12-12T01:10:58.237Z,-4.20
2022-12-12T01:13:26.092Z,-4.20
2022-12-12T01:15:54.011Z,-3.90
2022-12-12T01:18:21.695Z,-4.10
2022-12-12T01:20:49.093Z,-4.00
2022-12-12T01:23:16.763Z,-3.70
2022-12-12T01:25:44.183Z,-3.90
2022-12-12T01:28:12.092Z,-4.00
2022-12-12T01:30:39.724Z,-3.90
2022-12-12T01:33:07.152Z,-4.60
2022-12-12T01:35:35.192Z,-4.20
2022-12-12T01:38:02.519Z,-4.20
2022-12-12T01:40:31.756Z,-4.10
2022-12-12T01:43:01.405Z,-4.50
2022-12-12T01:46:03.277Z,-4.10
2022-12-12T01:48:37.484Z,-4.20
2022-12-12T01:51:17.478Z,-4.40
2022-12-12T01:53:46.163Z,-4.30
2022-12-12T01:56:17.865Z,-4.50
2022-12-12T01:58:48.255Z,-4.60
2022-12-12T02:01:17.321Z,-5.70
2022-12-12T02:03:45.822Z,-4.60
2022-12-12T02:06:18.450Z,-5.50
2022-12-12T02:08:46.698Z,-4.80
2022-12-12T02:11:14.140Z,-3.60
2022-12-12T02:13:41.782Z,-4.80
2022-12-12T02:16:20.724Z,-4.60
2022-12-12T02:19:43.486Z,-4.50
2022-12-12T02:22:26.099Z,-4.60
2022-12-12T02:25:25.079Z,-4.80
2022-12-12T02:28:32.194Z,-4.60
2022-12-12T02:31:30.158Z,-4.60
2022-12-12T02:34:10.999Z,-3.60
2022-12-12T02:36:45.983Z,-4.70
2022-12-12T02:39:41.141Z,-5.00
2022-12-12T02:42:40.210Z,-4.70
2022-12-12T02:45:20.824Z,-5.10
2022-12-12T02:47:54.445Z,-4.80
2022-12-12T02:50:26.079Z,-4.90
2022-12-12T02:52:53.616Z,-5.10
2022-12-12T02:55:21.075Z,-4.90
2022-12-12T02:57:50.125Z,-4.20
2022-12-12T03:00:20.116Z,-5.10
2022-12-12T03:03:30.071Z,-4.90
2022-12-12T03:06:45.401Z,-4.90
2022-12-12T03:09:42.168Z,-5.60
2022-12-12T03:12:16.961Z,-5.10
2022-12-12T03:15:01.922Z,-5.00
2022-12-12T03:17:36.236Z,-5.40
2022-12-12T03:20:16.500Z,-5.50
2022-12-12T03:22:56.595Z,-5.30
2022-12-12T03:25:26.817Z,-5.30
2022-12-12T03:28:03.988Z,-5.20
2022-12-12T03:30:39.428Z,-5.40
2022-12-12T03:33:28.598Z,-5.60
2022-12-12T03:36:02.389Z,-5.80
2022-12-12T03:38:36.834Z,-5.60
2022-12-12T03:41:09.151Z,-5.60
2022-12-12T03:43:50.161Z,-5.40
2022-12-12T03:46:39.289Z,-5.30
2022-12-12T03:49:34.752Z,-4.70
2022-12-12T03:52:08.242Z,-5.50
2022-12-12T03:54:46.261Z,-5.70
2022-12-12T03:57:20.412Z,-5.60
2022-12-12T04:00:08.086Z,-3.20
2022-12-12T04:02:41.986Z,-5.40
2022-12-12T04:05:16.748Z,-5.60
2022-12-12T04:07:49.773Z,-5.70
2022-12-12T04:10:35.851Z,-5.30
2022-12-12T04:13:16.139Z,-5.30
2022-12-12T04:16:06.416Z,-5.50
2022-12-12T04:18:36.562Z,-5.30
2022-12-12T04:21:51.286Z,-5.00
2022-12-12T04:24:39.214Z,-5.40
2022-12-12T04:27:31.208Z,-4.80
2022-12-12T04:30:10.656Z,-5.30
2022-12-12T04:32:59.646Z,-5.40
2022-12-12T04:35:54.014Z,-5.30
2022-12-12T04:38:24.641Z,-5.60
2022-12-12T04:40:58.801Z,-5.70
2022-12-12T04:43:31.644Z,-5.50
2022-12-12T04:49:27.185Z,-5.40
2022-12-12T04:52:29.876Z,-5.40
2022-12-12T04:55:36.286Z,-5.40
2022-12-12T04:58:32.341Z,-5.40
2022-12-12T05:01:36.053Z,-5.40
2022-12-12T05:04:43.499Z,-5.70
2022-12-12T05:10:16.648Z,-5.20
2022-12-12T05:15:44.790Z,-5.80
2022-12-12T05:24:18.610Z,-5.70
2022-12-12T05:38:49.612Z,-6.10
2022-12-12T05:53:06.402Z,-6.40
2022-12-12T06:01:18.537Z,-6.60
2022-12-12T06:17:33.875Z,-6.60
2022-12-12T06:20:03.649Z,-7.10
2022-12-12T06:22:31.199Z,-6.70
2022-12-12T06:24:58.674Z,-6.80
2022-12-12T06:27:26.306Z,-6.60
2022-12-12T06:29:54.124Z,-6.30
2022-12-12T06:32:21.680Z,-7.20
2022-12-12T06:34:50.255Z,-6.20
2022-12-12T06:37:17.903Z,-6.60
2022-12-12T06:39:45.994Z,-6.70
2022-12-12T06:42:13.972Z,-5.90
2022-12-12T06:44:41.648Z,-6.80
2022-12-12T06:47:09.195Z,-6.90
2022-12-12T06:49:39.801Z,-6.90
2022-12-12T06:52:07.988Z,-7.00
2022-12-12T06:54:37.690Z,-7.00
2022-12-12T06:57:05.455Z,-6.80
2022-12-12T06:59:35.685Z,-7.00
2022-12-12T07:02:03.915Z,-6.90
2022-12-12T07:04:31.851Z,-7.00
2022-12-12T07:07:00.109Z,-6.90
2022-12-12T07:09:33.654Z,-7.00
2022-12-12T07:12:02.397Z,-6.90
2022-12-12T07:14:34.818Z,-7.40
2022-12-12T07:17:02.995Z,-6.50
2022-12-12T07:19:30.954Z,-7.00
2022-12-12T07:22:01.653Z,-6.90
2022-12-12T07:24:32.392Z,-6.90
2022-12-12T07:27:01.099Z,-7.00
2022-12-12T07:29:29.805Z,-6.90
2022-12-12T07:31:59.097Z,-6.10
2022-12-12T07:34:30.179Z,-7.20
2022-12-12T07:37:02.893Z,-6.90
2022-12-12T07:39:36.174Z,-6.90
2022-12-12T07:42:04.196Z,-6.90
2022-12-12T07:44:32.624Z,-6.90
2022-12-12T07:47:01.206Z,-7.10
2022-12-12T07:49:30.973Z,-6.80
2022-12-12T07:52:01.146Z,-6.60
2022-12-12T07:54:34.154Z,-7.00
2022-12-12T07:57:02.437Z,-6.90
2022-12-12T07:59:30.123Z,-6.70
2022-12-12T08:03:01.322Z,-6.70
2022-12-12T08:05:30.456Z,-7.00
2022-12-12T08:07:59.717Z,-6.40
2022-12-12T08:10:27.443Z,-6.60
2022-12-12T08:12:57.911Z,-6.70
2022-12-12T08:16:02.717Z,-7.00
2022-12-12T08:18:31.553Z,-6.70
2022-12-12T08:21:01.269Z,-6.70
2022-12-12T08:23:34.440Z,-6.60
2022-12-12T08:26:08.714Z,-6.40
2022-12-12T08:28:39.826Z,-6.60
2022-12-12T08:31:08.991Z,-6.60
2022-12-12T08:33:37.135Z,-5.60
2022-12-12T08:36:15.762Z,-6.60
2022-12-12T08:38:48.789Z,-6.30
2022-12-12T08:41:17.180Z,-5.90
2022-12-12T08:43:52.042Z,-6.50
2022-12-12T08:46:21.336Z,-6.40
2022-12-12T08:48:50.216Z,-5.90
2022-12-12T08:51:21.261Z,-5.00
2022-12-12T08:53:51.468Z,-6.40
2022-12-12T08:57:14.141Z,-6.30
2022-12-12T08:59:44.899Z,-5.20
2022-12-12T09:02:22.131Z,-6.40
2022-12-12T09:04:49.574Z,-6.80
2022-12-12T09:07:17.822Z,-6.30
2022-12-12T09:09:46.399Z,-6.20
2022-12-12T09:12:14.209Z,-6.10
2022-12-12T09:14:42.710Z,-6.40
2022-12-12T09:17:34.957Z,-6.10
2022-12-12T09:20:04.231Z,-5.80
2022-12-12T09:22:32.743Z,-6.00
2022-12-12T09:25:01.421Z,-5.30
2022-12-12T09:27:33.539Z,-5.60
2022-12-12T09:30:02.554Z,-6.10
2022-12-12T09:32:31.276Z,-5.80
2022-12-12T09:34:58.799Z,-6.40
2022-12-12T09:37:28.341Z,-6.20
2022-12-12T09:40:01.241Z,-5.90
2022-12-12T09:42:33.101Z,-5.10
2022-12-12T09:45:10.976Z,-5.90
2022-12-12T09:47:51.018Z,-4.80
2022-12-12T09:50:38.279Z,-5.40
2022-12-12T09:53:12.713Z,-5.00
2022-12-12T09:55:42.915Z,-6.10
2022-12-12T09:58:34.139Z,-6.70
2022-12-12T10:01:12.310Z,-6.10
2022-12-12T10:04:01.518Z,-6.10
2022-12-12T10:07:01.556Z,-5.90
2022-12-12T10:09:51.265Z,-6.00
2022-12-12T10:12:21.318Z,-5.70
2022-12-12T10:14:58.323Z,-6.30
2022-12-12T10:17:37.760Z,-6.10
2022-12-12T10:20:17.980Z,-6.80
2022-12-12T10:23:19.250Z,-6.50
2022-12-12T10:26:20.524Z,-6.00
2022-12-12T10:28:54.528Z,-5.70
2022-12-12T10:31:33.170Z,-5.30
2022-12-12T10:34:06.631Z,-5.90
2022-12-12T10:36:37.076Z,-6.60
2022-12-12T10:39:15.104Z,-6.30
2022-12-12T10:42:13.205Z,-5.60
2022-12-12T10:45:32.173Z,-6.50
2022-12-12T10:48:02.258Z,-6.20
2022-12-12T10:50:34.950Z,-5.70
2022-12-12T10:53:06.801Z,-6.10
2022-12-12T10:55:52.969Z,-6.60
2022-12-12T10:58:35.645Z,-6.30
2022-12-12T11:01:11.490Z,-5.70
2022-12-12T11:03:41.900Z,-5.40
2022-12-12T11:06:29.611Z,-5.90
2022-12-12T11:09:19.525Z,-6.00
2022-12-12T11:12:15.244Z,-6.30
2022-12-12T11:14:54.753Z,-6.20
2022-12-12T11:17:30.831Z,-6.10
2022-12-12T11:20:00.729Z,-6.40
2022-12-12T11:22:32.909Z,-7.70
2022-12-12T11:25:02.576Z,-6.50
2022-12-12T11:27:38.801Z,-6.40
2022-12-12T11:30:17.705Z,-6.30
2022-12-12T11:32:48.910Z,-6.50
2022-12-12T11:35:26.479Z,-6.50
2022-12-12T11:38:06.969Z,-7.00
2022-12-12T11:40:36.916Z,-6.50
2022-12-12T11:43:27.728Z,-6.60
2022-12-12T11:46:15.114Z,-6.10
2022-12-12T11:48:58.117Z,-6.60
2022-12-12T11:51:43.648Z,-6.70
2022-12-12T11:54:22.956Z,-6.40
2022-12-12T11:57:05.089Z,-7.00
2022-12-12T12:00:00.302Z,-7.00
2022-12-12T12:02:46.325Z,-6.00
2022-12-12T12:05:35.130Z,-6.70
2022-12-12T12:08:26.350Z,-6.60
2022-12-12T12:11:05.098Z,-5.80
2022-12-12T12:13:58.021Z,-6.70
2022-12-12T12:16:35.351Z,-6.80
2022-12-12T12:19:16.613Z,-6.80
2022-12-12T12:22:08.138Z,-6.70
2022-12-12T12:24:44.472Z,-7.10
2022-12-12T12:27:52.124Z,-6.90
2022-12-12T12:30:49.398Z,-6.90
2022-12-12T12:33:51.732Z,-6.90
2022-12-12T12:36:24.117Z,-7.00
2022-12-12T12:39:31.747Z,-7.50
2022-12-12T12:42:03.484Z,-7.50
2022-12-12T12:44:56.979Z,-7.80
2022-12-12T12:47:52.849Z,-7.10
2022-12-12T12:50:30.671Z,-6.70
2022-12-12T12:53:25.607Z,-7.70
2022-12-12T12:55:56.956Z,-7.30
2022-12-12T12:58:40.567Z,-6.80
2022-12-12T13:01:21.089Z,-7.40
2022-12-12T13:03:59.117Z,-7.30
2022-12-12T13:06:37.946Z,-7.60
2022-12-12T13:09:27.816Z,-7.50
2022-12-12T13:12:04.168Z,-6.30
2022-12-12T13:14:43.730Z,-7.70
2022-12-12T13:17:24.211Z,-7.60
2022-12-12T13:19:54.040Z,-7.80
2022-12-12T13:22:22.642Z,-8.00
2022-12-12T13:24:59.782Z,-7.90
2022-12-12T13:27:33.949Z,-8.20
2022-12-12T13:30:36.444Z,-8.70
2022-12-12T13:33:10.271Z,-8.50
2022-12-12T13:35:46.135Z,-8.40
2022-12-12T13:38:27.176Z,-7.60
2022-12-12T13:41:01.124Z,-7.90
2022-12-12T13:43:37.646Z,-7.70
2022-12-12T13:46:24.718Z,-7.90
2022-12-12T13:49:30.895Z,-7.90
2022-12-12T13:52:24.874Z,-6.70
2022-12-12T13:55:11.132Z,-7.90
2022-12-12T13:58:06.382Z,-8.00
2022-12-12T14:00:41.096Z,-7.80
2022-12-12T14:03:12.644Z,-8.40
2022-12-12T14:05:41.969Z,-8.20
2022-12-12T14:08:12.338Z,-8.30
2022-12-12T14:10:46.304Z,-8.10
2022-12-12T14:13:24.018Z,-8.10
2022-12-12T14:16:17.178Z,-8.10
2022-12-12T14:18:50.805Z,-7.60
2022-12-12T14:21:20.520Z,-8.00
2022-12-12T14:23:50.811Z,-8.50
2022-12-12T14:26:27.515Z,-7.70
2022-12-12T14:29:16.892Z,-8.00
2022-12-12T14:31:47.836Z,-8.10
2022-12-12T14:34:54.273Z,-8.20
2022-12-12T14:37:40.518Z,-8.00
2022-12-12T14:40:22.029Z,-8.40
2022-12-12T14:43:20.264Z,-8.00
2022-12-12T14:45:51.905Z,-7.90
2022-12-12T14:48:32.493Z,-8.20
2022-12-12T14:51:10.288Z,-7.80
2022-12-12T14:53:37.571Z,-8.30
2022-12-12T14:56:12.310Z,-8.70
2022-12-12T14:58:43.533Z,-8.10
2022-12-12T15:01:11.344Z,-8.10
2022-12-12T15:03:44.726Z,-7.50
2022-12-12T15:06:24.307Z,-8.00
2022-12-12T15:08:52.720Z,-8.10
2022-12-12T15:11:31.203Z,-8.10
2022-12-12T15:14:00.826Z,-7.80
2022-12-12T15:16:48.515Z,-8.00
2022-12-12T15:19:22.199Z,-7.70
2022-12-12T15:21:49.633Z,-8.00
2022-12-12T15:24:20.802Z,-7.60
2022-12-12T15:26:51.648Z,-7.80
2022-12-12T15:29:23.445Z,-6.90
2022-12-12T15:32:04.126Z,-7.80
2022-12-12T15:34:41.204Z,-7.20
2022-12-12T15:37:23.905Z,-7.80
2022-12-12T15:40:09.827Z,-7.80
2022-12-12T15:42:39.264Z,-7.80
2022-12-12T15:45:09.683Z,-8.10
2022-12-12T15:47:37.179Z,-7.80
2022-12-12T15:50:13.483Z,-7.90
2022-12-12T15:52:41.991Z,-7.70
2022-12-12T15:55:21.447Z,-8.10
2022-12-12T15:57:51.642Z,-7.80
2022-12-12T16:00:39.493Z,-7.90
2022-12-12T16:03:21.530Z,-7.90
2022-12-12T16:06:03.365Z,-8.00
2022-12-12T16:08:53.778Z,-8.00
2022-12-12T16:11:45.753Z,-7.10
2022-12-12T16:14:37.355Z,-8.30
2022-12-12T16:17:23.560Z,-7.90
2022-12-12T16:20:05.734Z,-7.80
2022-12-12T16:22:42.881Z,-7.40
2022-12-12T16:25:11.905Z,-8.60
2022-12-12T16:27:39.294Z,-8.00
2022-12-12T16:30:07.178Z,-8.00
2022-12-12T16:32:34.665Z,-7.90
2022-12-12T16:35:02.250Z,-7.90
2022-12-12T16:37:29.738Z,-8.00
2022-12-12T16:39:57.184Z,-7.70
2022-12-12T16:42:24.636Z,-7.90
2022-12-12T16:44:52.400Z,-8.10
2022-12-12T16:47:21.346Z,-7.60
2022-12-12T16:49:49.554Z,-8.00
2022-12-12T16:52:19.324Z,-7.70
2022-12-12T16:54:53.169Z,-8.00
2022-12-12T16:57:22.577Z,-8.10
2022-12-12T16:59:50.052Z,-8.00
2022-12-12T17:02:20.964Z,-7.90
2022-12-12T17:04:49.634Z,-8.50
2022-12-12T17:07:17.960Z,-7.90
2022-12-12T17:09:45.529Z,-8.10
2022-12-12T17:12:13.505Z,-7.90
2022-12-12T17:14:40.981Z,-7.90
2022-12-12T17:17:08.486Z,-7.90
2022-12-12T17:19:35.878Z,-7.60
2022-12-12T17:22:03.808Z,-7.80
2022-12-12T17:24:31.479Z,-7.60
2022-12-12T17:26:58.984Z,-7.70
2022-12-12T17:29:26.311Z,-7.60
2022-12-12T17:31:53.676Z,-7.70
2022-12-12T17:34:21.126Z,-7.60
2022-12-12T17:36:48.527Z,-7.90
2022-12-12T17:39:24.323Z,-7.60
2022-12-12T17:41:52.043Z,-7.70
2022-12-12T17:44:25.511Z,-7.80
2022-12-12T17:46:55.906Z,-7.70
2022-12-12T17:49:24.435Z,-7.70
2022-12-12T17:51:51.842Z,-7.70
2022-12-12T17:54:20.197Z,-7.70
2022-12-12T17:56:48.465Z,-7.80
2022-12-12T17:59:15.936Z,-7.80
2022-12-12T18:01:45.970Z,-7.70
2022-12-12T18:04:14.826Z,-7.70
2022-12-12T18:06:43.127Z,-7.70
2022-12-12T18:09:10.966Z,-7.80
2022-12-12T18:11:41.936Z,-7.90
2022-12-12T18:16:48.481Z,-7.70
2022-12-12T18:19:32.046Z,-7.70
2022-12-12T18:22:13.160Z,-7.70
2022-12-12T18:25:13.740Z,-7.60
2022-12-12T18:27:54.921Z,-7.70
2022-12-12T18:30:33.487Z,-8.20
2022-12-12T18:33:04.889Z,-7.70
2022-12-12T18:38:15.908Z,-7.60
2022-12-12T18:41:48.417Z,-7.60
2022-12-12T18:44:51.903Z,-8.10
2022-12-12T18:47:39.416Z,-7.80
2022-12-12T18:53:33.294Z,-7.50
2022-12-12T19:02:25.353Z,-7.40
2022-12-12T19:05:13.746Z,-7.50
2022-12-12T19:08:26.371Z,-7.50
2022-12-12T19:14:09.341Z,-7.50
2022-12-12T19:16:41.888Z,-6.70
2022-12-12T19:19:27.136Z,-7.70
2022-12-12T19:22:08.808Z,-7.50
2022-12-12T19:25:35.198Z,-7.70
2022-12-12T19:28:17.940Z,-7.60
2022-12-12T19:30:58.313Z,-7.50
2022-12-12T19:33:40.337Z,-7.50
2022-12-12T19:36:38.304Z,-7.50
2022-12-12T19:39:17.506Z,-7.40
2022-12-12T19:41:52.630Z,-7.40
2022-12-12T19:48:14.246Z,-7.50
2022-12-12T19:50:57.362Z,-7.00
2022-12-12T19:56:44.144Z,-7.20
2022-12-12T20:08:46.189Z,-7.50
2022-12-12T20:11:50.565Z,-7.60
2022-12-12T20:14:57.333Z,-7.40
2022-12-12T20:17:28.679Z,-7.40
2022-12-12T20:23:09.158Z,-7.80
2022-12-12T20:32:08.817Z,-7.50
2022-12-12T20:35:02.683Z,-8.20
2022-12-12T20:37:43.347Z,-9.70
2022-12-12T20:40:48.248Z,-7.40
2022-12-12T20:56:46.662Z,-7.60
2022-12-12T20:59:48.282Z,-7.40
2022-12-12T21:02:36.299Z,-7.40
2022-12-12T21:12:01.585Z,-7.40
2022-12-12T21:15:07.599Z,-7.50
2022-12-12T21:17:47.710Z,-7.40
2022-12-12T21:20:34.367Z,-7.40
2022-12-12T21:32:58.137Z,-7.40
2022-12-12T21:36:18.227Z,-7.30
2022-12-12T21:42:43.227Z,-7.70
2022-12-12T21:45:55.758Z,-7.40
2022-12-12T22:07:22.392Z,-7.20
2022-12-12T22:10:10.464Z,-7.20
2022-12-12T22:12:57.083Z,-7.40
2022-12-12T22:15:29.018Z,-7.30
2022-12-12T22:17:59.771Z,-7.20
2022-12-12T22:20:27.554Z,-7.30
2022-12-12T22:22:55.988Z,-7.20
2022-12-12T22:25:23.470Z,-6.90
2022-12-12T22:27:53.173Z,-7.10
2022-12-12T22:30:34.328Z,-7.10
2022-12-12T22:35:48.105Z,-6.80
2022-12-12T22:41:23.273Z,-7.10
2022-12-12T22:44:15.000Z,-7.10
2022-12-12T22:46:54.835Z,-7.20
2022-12-12T22:49:26.135Z,-7.40
2022-12-12T22:52:03.227Z,-7.20
2022-12-12T23:00:07.704Z,-7.10
2022-12-12T23:05:23.762Z,-7.40
2022-12-12T23:07:54.005Z,-7.20
2022-12-12T23:13:04.801Z,-6.70
2022-12-12T23:15:32.243Z,-7.00
2022-12-12T23:23:18.726Z,-7.10
2022-12-12T23:25:49.924Z,-7.10
2022-12-12T23:28:17.400Z,-7.00
2022-12-12T23:30:45.551Z,-7.10
2022-12-12T23:33:15.012Z,-7.20
2022-12-12T23:38:32.127Z,-7.10
2022-12-12T23:43:32.078Z,-7.10
2022-12-12T23:54:20.461Z,-7.00
2022-12-12T23:59:50.909Z,-7.00
